Time;durP1;ratioP1;P1;durP2;ratioP2;P2;SDS_P1;SDS_P2;PMS_P1;PMS_P2;Temp;Humidity;BMP_temperature;BMP_pressure;BME280_temperature;BME280_humidity;BME280_pressure;Samples;Min_cycle;Max_cycle;Signal;HPM_P1;HPM_P2
2021/04/17 00:00:07;;;;;;;7.43;3.65;;;;;;;5.52;46.76;101394.69;10474477;28;20232;-70
2021/04/17 00:05:14;;;;;;;6.30;4.18;;;;;;;5.50;46.59;101394.75;10477187;28;20701;-70
2021/04/17 00:10:17;;;;;;;7.22;5.25;;;;;;;5.50;46.51;101392.06;10474877;28;20247;-70
2021/04/17 00:15:19;;;;;;;4.88;3.70;;;;;;;5.41;47.05;101395.16;10458522;28;20228;-71
2021/04/17 00:20:21;;;;;;;6.75;4.10;;;;;;;5.22;48.02;101381.75;10432869;28;20242;-71
2021/04/17 00:25:24;;;;;;;4.07;3.03;;;;;;;5.27;47.50;101383.28;10432940;28;20236;-71
2021/04/17 00:30:26;;;;;;;5.97;3.37;;;;;;;5.28;47.40;101370.81;10432778;28;20623;-70
2021/04/17 00:35:28;;;;;;;3.53;2.95;;;;;;;5.28;47.76;101382.34;10434242;28;20240;-70
2021/04/17 00:40:31;;;;;;;5.20;3.10;;;;;;;5.29;47.59;101385.88;10432401;28;20241;-70
2021/04/17 00:45:33;;;;;;;7.07;3.13;;;;;;;5.32;47.86;101376.88;10432012;28;20240;-70
2021/04/17 00:50:35;;;;;;;4.68;2.90;;;;;;;5.41;47.50;101377.34;10431915;28;20254;-71
2021/04/17 00:55:39;;;;;;;5.13;3.53;;;;;;;5.49;47.39;101377.88;10429759;28;20225;-71
2021/04/17 01:00:41;;;;;;;4.63;2.53;;;;;;;5.43;47.62;101379.94;10431942;28;20233;-71
2021/04/17 01:05:45;;;;;;;5.30;3.30;;;;;;;5.35;47.92;101382.97;10430341;28;20601;-70
2021/04/17 01:10:55;;;;;;;9.73;4.03;;;;;;;5.41;47.89;101376.50;10433622;28;20741;-70
2021/04/17 01:15:57;;;;;;;4.28;3.47;;;;;;;5.36;48.03;101376.69;10454508;28;20605;-71
2021/04/17 01:21:00;;;;;;;7.35;3.50;;;;;;;5.31;47.82;101372.50;10474924;28;20365;-71
2021/04/17 01:26:07;;;;;;;3.77;3.13;;;;;;;5.19;48.42;101374.75;10474191;28;20232;-71
2021/04/17 01:31:12;;;;;;;4.97;3.50;;;;;;;5.05;48.96;101377.16;10470914;28;21619;-71
2021/04/17 01:36:16;;;;;;;4.63;3.83;;;;;;;5.01;49.12;101379.06;10470383;28;20259;-72
2021/04/17 01:41:24;;;;;;;6.77;3.57;;;;;;;4.87;49.36;101369.88;10472820;28;20247;-71
2021/04/17 01:46:28;;;;;;;5.13;3.10;;;;;;;4.77;49.88;101366.72;10472470;28;20225;-71
2021/04/17 01:51:32;;;;;;;5.30;3.37;;;;;;;4.87;49.77;101362.75;10471298;28;20304;-70
2021/04/17 01:56:37;;;;;;;4.17;2.80;;;;;;;4.80;49.95;101370.16;10472836;28;20259;-71
2021/04/17 02:01:39;;;;;;;4.77;3.20;;;;;;;4.81;50.05;101357.69;10470389;28;20232;-70
2021/04/17 02:06:41;;;;;;;4.27;3.20;;;;;;;4.78;50.07;101358.69;10474593;28;20264;-70
2021/04/17 02:11:44;;;;;;;4.90;3.00;;;;;;;4.67;50.73;101360.94;10478618;28;20296;-70
2021/04/17 02:16:50;;;;;;;5.63;3.20;;;;;;;4.47;51.41;101353.75;10450610;28;20233;-71
2021/04/17 02:21:57;;;;;;;9.38;3.97;;;;;;;4.36;51.82;101363.94;10437827;28;20697;-70
2021/04/17 02:27:00;;;;;;;5.63;3.33;;;;;;;4.16;52.24;101356.75;10437542;28;20236;-70
2021/04/17 02:32:02;;;;;;;6.50;3.70;;;;;;;4.03;52.96;101356.38;10436946;28;20339;-72
2021/04/17 02:37:05;;;;;;;5.57;3.50;;;;;;;3.91;53.12;101351.50;10435341;28;20237;-71
2021/04/17 02:42:09;;;;;;;4.30;2.90;;;;;;;3.81;53.36;101350.97;10437431;28;20236;-71
2021/04/17 02:47:12;;;;;;;8.77;3.50;;;;;;;3.65;53.74;101347.19;10435128;28;20233;-70
2021/04/17 02:52:14;;;;;;;8.03;3.93;;;;;;;3.62;54.20;101349.91;10416651;28;20261;-71
2021/04/17 02:57:17;;;;;;;6.70;3.53;;;;;;;3.65;54.10;101348.03;10435035;28;20237;-73
2021/04/17 03:02:19;;;;;;;5.93;4.00;;;;;;;3.55;54.22;101349.28;10452517;28;20846;-70
2021/04/17 03:07:21;;;;;;;5.43;3.73;;;;;;;3.56;54.50;101340.38;10435151;28;20256;-70
2021/04/17 03:12:24;;;;;;;6.07;3.67;;;;;;;3.56;54.77;101339.53;10449013;28;20233;-71
2021/04/17 03:17:26;;;;;;;6.10;3.70;;;;;;;3.56;54.99;101336.88;10470537;28;20240;-71
2021/04/17 03:22:28;;;;;;;4.20;3.43;;;;;;;3.46;55.43;101329.25;10475468;28;20781;-70
2021/04/17 03:27:31;;;;;;;7.57;4.30;;;;;;;3.49;55.73;101330.94;10478364;28;20239;-71
2021/04/17 03:32:33;;;;;;;7.70;4.43;;;;;;;3.48;55.75;101329.16;10478065;28;20228;-73
2021/04/17 03:37:36;;;;;;;9.30;4.63;;;;;;;3.36;55.69;101321.66;10476285;28;20270;-71
2021/04/17 03:42:40;;;;;;;8.70;4.63;;;;;;;3.26;56.45;101324.66;10476681;28;20244;-71
2021/04/17 03:47:42;;;;;;;8.10;4.70;;;;;;;3.20;57.14;101316.88;10474403;28;20244;-72
2021/04/17 03:52:44;;;;;;;6.47;4.47;;;;;;;3.05;57.86;101333.38;10478430;28;20281;-71
2021/04/17 03:57:47;;;;;;;11.60;5.17;;;;;;;2.91;58.28;101330.28;10475770;28;20240;-72
2021/04/17 04:02:49;;;;;;;6.97;4.60;;;;;;;2.87;58.96;101323.38;10476413;28;21800;-70
2021/04/17 04:07:51;;;;;;;10.50;5.53;;;;;;;2.83;59.51;101331.44;10475872;28;20240;-70
2021/04/17 04:12:54;;;;;;;10.47;5.87;;;;;;;2.86;59.60;101333.13;10475867;28;20289;-71
2021/04/17 04:17:56;;;;;;;11.37;5.73;;;;;;;2.68;60.67;101334.59;10453216;28;20619;-69
2021/04/17 04:22:59;;;;;;;8.87;5.53;;;;;;;2.59;61.30;101330.47;10435028;28;20224;-70
2021/04/17 04:28:03;;;;;;;11.07;6.20;;;;;;;2.29;62.05;101326.13;10424117;28;20706;-72
2021/04/17 04:33:05;;;;;;;8.90;5.97;;;;;;;2.31;62.17;101329.59;10433122;28;20236;-69
2021/04/17 04:38:07;;;;;;;9.17;5.60;;;;;;;2.20;63.03;101337.88;10429892;28;20248;-72
2021/04/17 04:43:10;;;;;;;8.90;5.87;;;;;;;2.04;63.77;101333.97;10433885;28;20229;-72
2021/04/17 04:48:12;;;;;;;12.03;6.27;;;;;;;2.00;64.15;101342.91;10434908;28;20244;-71
2021/04/17 04:53:15;;;;;;;12.67;6.43;;;;;;;2.06;64.25;101337.44;10432767;28;20335;-71
2021/04/17 04:58:18;;;;;;;10.13;6.23;;;;;;;2.06;64.77;101335.66;10434832;28;20237;-71
2021/04/17 05:03:20;;;;;;;11.77;6.80;;;;;;;2.18;64.44;101335.25;10433730;28;20233;-72
2021/04/17 05:08:22;;;;;;;10.93;6.87;;;;;;;2.23;64.10;101340.44;10432065;28;20232;-73
2021/04/17 05:13:25;;;;;;;10.10;6.77;;;;;;;1.98;64.90;101344.75;10435365;28;20229;-71
2021/04/17 05:18:27;;;;;;;10.57;6.60;;;;;;;2.27;64.46;101342.06;10489473;28;20286;-72
2021/04/17 05:23:29;;;;;;;8.53;5.97;;;;;;;2.36;64.39;101335.63;10474108;28;20240;-70
2021/04/17 05:28:31;;;;;;;10.73;7.30;;;;;;;2.55;64.12;101336.81;10471565;28;20236;-73
2021/04/17 05:33:34;;;;;;;12.43;7.13;;;;;;;2.69;63.57;101341.66;10474525;28;20240;-70
2021/04/17 05:38:36;;;;;;;12.63;7.00;;;;;;;2.69;63.41;101344.31;10490102;28;20235;-70
2021/04/17 05:43:39;;;;;;;12.50;7.20;;;;;;;2.69;63.45;101338.09;10478724;28;20725;-70
2021/04/17 05:48:41;;;;;;;12.23;7.03;;;;;;;2.61;64.03;101335.72;10479672;28;20228;-69
2021/04/17 05:53:43;;;;;;;11.27;6.87;;;;;;;2.84;63.74;101333.16;10479066;28;20247;-69
2021/04/17 05:58:46;;;;;;;14.47;8.40;;;;;;;3.13;63.70;101325.16;10460290;28;20236;-69
2021/04/17 06:03:48;;;;;;;13.47;8.00;;;;;;;3.28;63.96;101332.56;10483376;28;20271;-69
2021/04/17 06:08:50;;;;;;;13.67;8.43;;;;;;;3.42;63.75;101324.94;10437692;28;20239;-71
2021/04/17 06:13:54;;;;;;;17.33;7.70;;;;;;;3.29;64.51;101336.94;10439487;28;20875;-70
2021/04/17 06:18:56;;;;;;;12.47;7.70;;;;;;;3.75;63.59;101329.09;10458910;28;20328;-69
2021/04/17 06:23:58;;;;;;;14.33;8.47;;;;;;;3.92;63.59;101338.16;10479833;28;20636;-69
2021/04/17 06:29:01;;;;;;;12.87;8.13;;;;;;;4.12;63.37;101337.38;10479295;28;20229;-70
2021/04/17 06:34:03;;;;;;;13.33;7.90;;;;;;;4.44;62.43;101337.88;10444738;28;20232;-70
2021/04/17 06:39:06;;;;;;;13.87;8.37;;;;;;;4.51;62.59;101334.06;10438538;28;20244;-71
2021/04/17 06:44:10;;;;;;;11.83;7.53;;;;;;;4.76;62.25;101320.59;10437652;28;20233;-71
2021/04/17 06:49:12;;;;;;;12.27;7.97;;;;;;;4.99;61.75;101311.69;10458813;28;20716;-71
2021/04/17 06:54:19;;;;;;;10.77;6.33;;;;;;;4.78;62.69;101305.44;10475049;28;20233;-71
2021/04/17 06:59:22;;;;;;;22.13;9.00;;;;;;;4.96;63.03;101316.22;10478267;28;20224;-73
2021/04/17 07:04:25;;;;;;;11.60;7.78;;;;;;;5.49;62.02;101324.59;10475745;28;20792;-71
2021/04/17 07:09:27;;;;;;;14.13;7.53;;;;;;;5.81;61.08;101322.25;10476195;28;20232;-71
2021/04/17 07:14:41;;;;;;;11.38;6.93;;;;;;;6.20;60.58;101317.75;10465915;28;20239;-71
2021/04/17 07:19:52;;;;;;;12.80;7.40;;;;;;;5.91;60.31;101304.88;10436483;28;20237;-70
2021/04/17 07:24:56;;;;;;;11.75;6.20;;;;;;;5.81;60.19;101313.38;10437815;28;20233;-71
2021/04/17 07:29:59;;;;;;;15.48;8.85;;;;;;;6.24;60.60;101320.22;10435007;28;20229;-71
2021/04/17 07:35:10;;;;;;;18.13;7.95;;;;;;;6.41;59.06;101319.41;10436960;28;20271;-70
2021/04/17 07:40:21;;;;;;;15.10;8.25;;;;;;;6.14;59.69;101313.59;10433547;28;20237;-70
2021/04/17 07:45:27;;;;;;;15.23;7.70;;;;;;;6.30;59.88;101322.59;10437861;28;20236;-71
2021/04/17 07:50:33;;;;;;;20.15;9.52;;;;;;;6.37;59.36;101309.84;10433305;28;20235;-71
2021/04/17 07:55:35;;;;;;;15.73;9.13;;;;;;;6.45;59.94;101317.47;10449883;28;20229;-72
2021/04/17 08:00:39;;;;;;;17.35;9.07;;;;;;;6.55;59.90;101308.03;10434453;28;20244;-71
2021/04/17 08:05:42;;;;;;;20.30;9.50;;;;;;;6.58;60.07;101311.44;10432880;28;20731;-71
2021/04/17 08:10:44;;;;;;;19.23;10.00;;;;;;;6.70;60.06;101311.78;10433065;28;20237;-71
2021/04/17 08:15:47;;;;;;;17.73;10.15;;;;;;;7.09;59.10;101311.56;10457697;28;20232;-71
2021/04/17 08:20:50;;;;;;;19.63;10.30;;;;;;;6.99;58.60;101312.97;10475429;28;20242;-71
2021/04/17 08:25:53;;;;;;;21.45;10.00;;;;;;;6.78;59.40;101313.13;10474638;28;20267;-71
2021/04/17 08:31:20;;;;;;;14.27;10.40;;;;;;;7.09;59.39;101311.56;10473950;28;20394;-72
2021/04/17 08:36:31;;;;;;;17.67;9.73;;;;;;;7.15;58.67;101315.72;10457487;28;20238;-69
2021/04/17 08:41:37;;;;;;;20.15;10.57;;;;;;;6.94;59.18;101309.69;10442257;28;20229;-71
2021/04/17 08:46:41;;;;;;;18.83;9.90;;;;;;;7.40;58.36;101307.28;10432580;28;20240;-69
2021/04/17 08:51:44;;;;;;;20.52;10.95;;;;;;;7.50;57.37;101300.50;10433360;28;20325;-72
2021/04/17 08:56:49;;;;;;;26.30;11.32;;;;;;;7.29;58.22;101299.84;10440121;28;20241;-71
2021/04/17 09:01:53;;;;;;;18.38;10.07;;;;;;;7.00;57.76;101296.88;10423112;28;20241;-72
2021/04/17 09:06:57;;;;;;;18.20;10.18;;;;;;;7.39;57.72;101303.75;10428279;28;20240;-71
2021/04/17 09:12:16;;;;;;;17.02;9.05;;;;;;;7.56;56.40;101299.31;10440848;28;20228;-71
2021/04/17 09:17:41;;;;;;;23.58;10.90;;;;;;;7.66;55.48;101298.75;10432213;28;20256;-71
2021/04/17 09:22:50;;;;;;;20.73;12.30;;;;;;;7.58;54.54;101290.28;10429899;28;20316;-71
2021/04/17 09:27:52;;;;;;;21.85;10.73;;;;;;;8.10;54.28;101276.69;10431905;28;20237;-71
2021/04/17 09:32:56;;;;;;;21.80;10.35;;;;;;;8.46;52.80;101277.38;10431404;28;20237;-71
2021/04/17 09:38:02;;;;;;;17.60;9.48;;;;;;;8.83;51.50;101281.41;10472463;28;20232;-71
2021/04/17 09:43:06;;;;;;;20.35;10.50;;;;;;;8.96;50.19;101278.88;10467078;28;20693;-71
2021/04/17 09:48:10;;;;;;;13.90;8.07;;;;;;;9.27;49.54;101278.75;10434384;28;20241;-71
2021/04/17 09:53:15;;;;;;;14.25;7.35;;;;;;;8.54;50.41;101256.38;10432697;28;20233;-71
2021/04/17 09:58:28;;;;;;;28.20;12.88;;;;;;;9.53;49.62;101252.13;10432227;28;20236;-71
2021/04/17 10:03:33;;;;;;;13.75;6.85;;;;;;;9.24;47.54;101256.59;10433955;28;20224;-72
2021/04/17 10:08:36;;;;;;;11.88;7.38;;;;;;;8.94;48.13;101252.19;10431624;28;20718;-71
2021/04/17 10:13:40;;;;;;;13.38;6.38;;;;;;;8.58;46.77;101249.88;10432171;28;20658;-71
2021/04/17 10:18:45;;;;;;;12.65;6.47;;;;;;;8.75;47.17;101239.03;10469985;28;20249;-71
2021/04/17 10:24:23;;;;;;;13.00;6.10;;;;;;;9.47;45.39;101237.28;10474037;28;20385;-70
2021/04/17 10:29:41;;;;;;;12.23;5.47;;;;;;;9.94;44.67;101230.72;10474172;28;20285;-70
2021/04/17 10:34:45;;;;;;;9.15;5.88;;;;;;;10.06;45.06;101221.00;10477428;28;20223;-70
2021/04/17 10:40:02;;;;;;;11.45;6.32;;;;;;;10.69;43.58;101214.09;10476045;28;20239;-71
2021/04/17 10:45:05;;;;;;;8.73;4.72;;;;;;;11.35;41.35;101205.97;10476898;28;20228;-70
2021/04/17 10:50:20;;;;;;;8.18;4.53;;;;;;;11.28;41.09;101202.88;10466563;28;20237;-70
2021/04/17 10:55:36;;;;;;;8.20;5.13;;;;;;;10.70;41.81;101194.34;10477648;28;20231;-70
2021/04/17 11:00:38;;;;;;;8.90;4.40;;;;;;;10.44;41.20;101190.72;10475645;28;21549;-70
2021/04/17 11:05:41;;;;;;;10.93;5.47;;;;;;;12.19;41.73;101182.81;10468142;28;20705;-70
2021/04/17 11:10:44;;;;;;;6.75;4.10;;;;;;;13.00;37.97;101174.75;10477159;28;20593;-70
2021/04/17 11:15:45;;;;;;;7.45;4.32;;;;;;;14.11;36.19;101161.22;10479237;28;20233;-70
2021/04/17 11:20:58;;;;;;;8.02;4.47;;;;;;;14.94;35.43;101154.16;10476734;28;20258;-70
2021/04/17 11:26:01;;;;;;;8.13;4.45;;;;;;;13.42;36.88;101156.13;10476004;28;20251;-71
2021/04/17 11:31:03;;;;;;;8.35;4.50;;;;;;;15.37;34.89;101141.44;10475077;28;20236;-71
2021/04/17 11:36:07;;;;;;;4.35;3.55;;;;;;;15.63;32.42;101128.25;10476406;28;20330;-71
2021/04/17 11:41:09;;;;;;;7.70;4.05;;;;;;;15.73;33.65;101136.41;10473260;28;20748;-71
2021/04/17 11:46:11;;;;;;;8.18;3.75;;;;;;;17.14;31.39;101124.03;10476788;28;20717;-71
2021/04/17 11:51:15;;;;;;;6.20;3.90;;;;;;;17.32;29.54;101120.50;10477812;28;21341;-71
2021/04/17 11:56:18;;;;;;;7.60;4.00;;;;;;;19.54;27.67;101126.75;10435516;28;20258;-69
2021/04/17 12:01:21;;;;;;;5.47;2.72;;;;;;;19.53;27.19;101119.56;10474156;28;20790;-69
2021/04/17 12:06:29;;;;;;;9.75;3.40;;;;;;;19.62;27.39;101111.28;10473427;28;20238;-69
2021/04/17 12:11:34;;;;;;;4.45;3.00;;;;;;;18.29;28.82;101128.00;10475483;28;20675;-69
2021/04/17 12:16:36;;;;;;;7.25;3.55;;;;;;;16.51;31.39;101121.00;10473958;28;20332;-69
2021/04/17 12:21:40;;;;;;;7.07;3.60;;;;;;;15.91;31.44;101134.72;10475741;28;20232;-68
2021/04/17 12:26:42;;;;;;;4.70;3.35;;;;;;;16.46;31.58;101123.34;10475340;28;20236;-69
2021/04/17 12:31:44;;;;;;;4.68;3.47;;;;;;;18.49;29.40;101115.09;10475439;28;20331;-69
2021/04/17 12:36:47;;;;;;;5.80;3.35;;;;;;;17.10;30.41;101108.16;10463707;23;20246;-74
2021/04/17 12:41:49;;;;;;;7.53;3.17;;;;;;;16.30;31.91;101105.78;10307340;28;20235;-75
2021/04/17 12:46:51;;;;;;;6.63;3.83;;;;;;;16.63;31.41;101103.59;10308377;28;20719;-75
2021/04/17 12:51:55;;;;;;;5.05;3.80;;;;;;;17.52;30.05;101094.09;10310530;28;20336;-75
2021/04/17 12:56:57;;;;;;;5.78;3.63;;;;;;;17.64;30.69;101098.31;10310477;28;20235;-77
2021/04/17 13:01:59;;;;;;;6.45;3.45;;;;;;;18.09;30.65;101095.53;10310218;28;20725;-75
2021/04/17 13:07:02;;;;;;;4.30;3.45;;;;;;;17.52;30.11;101075.91;10308391;28;20235;-76
2021/04/17 13:12:05;;;;;;;4.95;3.38;;;;;;;16.04;32.01;101077.53;10306957;28;20231;-76
2021/04/17 13:17:07;;;;;;;4.78;3.20;;;;;;;15.78;33.19;101079.94;10311505;28;20719;-75
2021/04/17 13:22:10;;;;;;;7.47;3.08;;;;;;;15.95;33.65;101072.97;10310767;28;20231;-74
2021/04/17 13:27:12;;;;;;;4.70;3.47;;;;;;;17.63;31.40;101062.13;10311044;28;20750;-76
2021/04/17 13:32:14;;;;;;;7.15;3.38;;;;;;;18.04;29.95;101048.09;10309725;28;21481;-75
2021/04/17 13:37:17;;;;;;;6.65;3.22;;;;;;;15.58;32.95;101055.56;10307280;28;20247;-75
2021/04/17 13:42:20;;;;;;;5.40;3.05;;;;;;;15.76;33.60;101050.28;10307092;28;20289;-76
2021/04/17 13:47:22;;;;;;;4.57;3.28;;;;;;;16.01;32.95;101038.00;10310864;28;20243;-77
2021/04/17 13:52:26;;;;;;;4.22;2.70;;;;;;;16.34;32.70;101041.28;10312410;28;20624;-77
2021/04/17 13:57:27;;;;;;;9.48;3.72;;;;;;;15.70;33.26;101029.19;10310640;28;20239;-76
2021/04/17 14:02:30;;;;;;;3.97;3.15;;;;;;;15.78;33.07;101026.63;10311713;28;20231;-76
2021/04/17 14:07:33;;;;;;;7.22;3.00;;;;;;;15.43;34.12;101024.47;10316616;28;20231;-77
2021/04/17 14:12:35;;;;;;;5.32;2.85;;;;;;;15.38;34.00;101010.50;10316777;28;20238;-77
2021/04/17 14:17:38;;;;;;;4.03;2.63;;;;;;;15.32;34.11;101011.88;10280447;28;20240;-76
2021/04/17 14:22:41;;;;;;;4.97;3.08;;;;;;;15.77;33.82;101002.38;10282489;28;20246;-77
2021/04/17 14:27:44;;;;;;;7.55;3.10;;;;;;;15.87;33.30;101004.09;10284171;28;20791;-75
2021/04/17 14:32:46;;;;;;;7.05;2.90;;;;;;;16.17;33.10;100998.63;10276914;28;20239;-77
2021/04/17 14:37:49;;;;;;;5.18;2.83;;;;;;;15.88;32.84;101007.69;10316048;28;20234;-76
2021/04/17 14:42:51;;;;;;;7.93;3.55;;;;;;;15.40;33.41;101003.09;10294969;28;20224;-77
2021/04/17 14:47:53;;;;;;;4.57;3.38;;;;;;;15.22;34.06;101006.47;10293630;28;20238;-76
2021/04/17 14:52:56;;;;;;;4.80;3.38;;;;;;;14.78;34.46;100994.22;10268601;28;20236;-76
2021/04/17 14:57:58;;;;;;;9.60;4.00;;;;;;;14.66;34.95;100990.78;10282262;28;20232;-77
2021/04/17 15:03:01;;;;;;;7.60;3.55;;;;;;;14.83;34.60;100990.09;10272367;28;20235;-77
2021/04/17 15:08:05;;;;;;;7.63;3.90;;;;;;;14.99;34.93;100994.16;10286628;28;20235;-77
2021/04/17 15:13:07;;;;;;;5.70;3.17;;;;;;;14.88;34.90;100989.72;10278460;28;20244;-76
2021/04/17 15:18:09;;;;;;;6.45;3.42;;;;;;;14.98;35.32;100993.31;10361141;28;20281;-75
2021/04/17 15:23:12;;;;;;;18.98;5.25;;;;;;;14.78;35.21;100989.69;10328837;28;20319;-76
2021/04/17 15:28:14;;;;;;;8.48;4.30;;;;;;;14.93;35.61;100981.19;10292832;28;20322;-76
2021/04/17 15:33:18;;;;;;;6.07;3.95;;;;;;;14.68;35.76;100975.28;10261414;28;20242;-76
2021/04/17 15:38:22;;;;;;;6.07;3.85;;;;;;;14.38;36.46;100986.91;10282007;28;20325;-76
2021/04/17 15:43:25;;;;;;;11.75;4.38;;;;;;;13.84;37.62;100978.03;10291078;28;20297;-76
2021/04/17 15:48:27;;;;;;;6.20;4.00;;;;;;;13.62;38.24;100988.97;10289524;28;20329;-76
2021/04/17 15:53:30;;;;;;;4.40;3.13;;;;;;;13.22;37.76;100984.19;10298835;28;20719;-76
2021/04/17 16:04:18;;;;;;;6.97;3.90;;;;;;;13.27;37.69;100980.13;10295166;28;20238;-76
2021/04/17 16:14:43;;;;;;;13.45;4.25;;;;;;;13.33;37.88;100973.34;10311594;28;20230;-76
2021/04/17 16:19:57;;;;;;;6.38;3.25;;;;;;;13.41;37.30;100972.72;10310379;28;20283;-76
2021/04/17 16:25:00;;;;;;;7.53;3.35;;;;;;;13.24;37.55;100976.81;10312646;28;20625;-76
2021/04/17 16:30:04;;;;;;;6.60;3.75;;;;;;;13.14;38.54;100975.88;10295476;28;20231;-76
2021/04/17 16:35:08;;;;;;;5.28;3.75;;;;;;;13.18;38.55;100969.22;10311237;28;20350;-76
2021/04/17 16:40:12;;;;;;;5.78;3.50;;;;;;;13.37;38.09;100971.28;10297019;28;20659;-77
2021/04/17 16:45:16;;;;;;;7.60;3.67;;;;;;;13.54;37.92;100970.72;10286622;28;20373;-77
2021/04/17 16:50:21;;;;;;;8.02;4.18;;;;;;;13.45;37.63;100974.19;10273231;28;20246;-75
2021/04/17 16:55:24;;;;;;;8.68;4.18;;;;;;;13.24;38.45;100974.97;10269895;28;20244;-76
2021/04/17 17:00:26;;;;;;;5.63;4.18;;;;;;;13.23;38.69;100978.66;10266246;28;20236;-76
2021/04/17 17:05:29;;;;;;;4.57;3.63;;;;;;;13.68;38.03;100977.63;10264989;28;20238;-76
2021/04/17 17:10:33;;;;;;;5.75;4.05;;;;;;;13.56;38.31;100979.53;10280077;28;20269;-77
2021/04/17 17:15:37;;;;;;;9.30;4.43;;;;;;;13.24;38.13;100980.34;10312379;28;20370;-76
2021/04/17 17:20:52;;;;;;;7.03;4.47;;;;;;;13.07;38.42;100980.91;10306447;28;20642;-77
2021/04/17 17:25:55;;;;;;;8.23;5.63;;;;;;;13.09;38.58;100983.47;10298976;28;20242;-76
2021/04/17 17:30:57;;;;;;;6.32;4.45;;;;;;;12.97;38.97;100991.59;10275102;28;20266;-76
2021/04/17 17:35:58;;;;;;;8.07;4.60;;;;;;;12.67;39.89;100978.78;10278036;28;20719;-75
2021/04/17 17:41:01;;;;;;;9.75;5.47;;;;;;;12.49;40.06;100985.63;10273965;28;20242;-76
2021/04/17 17:46:04;;;;;;;7.25;5.22;;;;;;;11.95;40.68;100997.88;10276744;28;20232;-75
2021/04/17 17:51:06;;;;;;;7.90;4.75;;;;;;;11.59;41.35;100999.72;10270356;28;20274;-76
2021/04/17 17:56:09;;;;;;;8.63;4.72;;;;;;;11.40;41.60;101002.06;10268337;28;20894;-75
2021/04/17 18:01:11;;;;;;;7.28;4.75;;;;;;;11.34;42.01;101005.22;10264720;28;20235;-76
2021/04/17 18:06:13;;;;;;;6.75;4.65;;;;;;;11.25;42.64;100998.69;10272729;28;20243;-75
2021/04/17 18:11:16;;;;;;;11.25;5.45;;;;;;;11.22;42.36;101002.47;10267380;28;20681;-74
2021/04/17 18:16:18;;;;;;;7.03;5.30;;;;;;;11.19;42.03;101009.88;10251467;28;21521;-74
2021/04/17 18:21:20;;;;;;;8.48;5.22;;;;;;;11.09;42.42;101022.28;10274899;28;20721;-74
2021/04/17 18:26:23;;;;;;;9.82;5.70;;;;;;;10.96;42.72;101022.31;10312747;28;20250;-74
2021/04/17 18:31:25;;;;;;;8.38;5.07;;;;;;;10.87;43.13;101025.66;10313184;28;20234;-73
2021/04/17 18:36:27;;;;;;;8.27;5.57;;;;;;;10.75;43.04;101024.69;10271970;28;20243;-75
2021/04/17 18:41:30;;;;;;;8.75;5.45;;;;;;;10.68;43.43;101021.59;10272406;28;20236;-75
2021/04/17 18:46:32;;;;;;;7.93;4.90;;;;;;;10.58;43.53;101024.06;10273006;28;20621;-72
2021/04/17 18:51:35;;;;;;;72.93;39.72;;;;;;;10.53;43.61;101028.94;10271089;28;20286;-73
2021/04/17 18:56:38;;;;;;;54.40;33.20;;;;;;;10.50;43.35;101023.75;10239254;28;20255;-73
2021/04/17 19:01:40;;;;;;;15.73;10.52;;;;;;;10.54;43.83;101024.44;10277358;28;20240;-74
2021/04/17 19:06:42;;;;;;;13.30;8.38;;;;;;;10.53;43.60;101033.44;10263738;28;20235;-72
2021/04/17 19:11:45;;;;;;;9.65;6.20;;;;;;;10.55;43.21;101018.06;10267994;28;20619;-74
2021/04/17 19:16:47;;;;;;;8.68;6.07;;;;;;;10.45;43.94;101019.69;10308065;28;20242;-74
2021/04/17 19:21:49;;;;;;;11.63;6.05;;;;;;;10.46;44.12;101019.59;10311096;28;20348;-72
2021/04/17 19:26:52;;;;;;;11.45;5.55;;;;;;;10.48;43.45;101028.41;10311887;28;20249;-73
2021/04/17 19:31:54;;;;;;;7.47;5.10;;;;;;;10.36;43.79;101024.72;10310631;28;20273;-73
2021/04/17 19:36:57;;;;;;;9.35;5.57;;;;;;;10.16;44.16;101027.97;10344380;28;20238;-74
2021/04/17 19:42:00;;;;;;;11.32;5.65;;;;;;;9.94;44.76;101018.69;10351987;28;20221;-74
2021/04/17 19:47:02;;;;;;;8.15;5.40;;;;;;;9.74;45.29;101035.28;10312311;28;20258;-73
2021/04/17 19:52:04;;;;;;;10.90;6.30;;;;;;;9.53;45.41;101031.34;10283357;28;20586;-74
2021/04/17 19:57:07;;;;;;;8.57;5.97;;;;;;;9.37;46.26;101034.16;10268062;28;20251;-72
2021/04/17 20:02:09;;;;;;;10.82;6.40;;;;;;;9.28;46.10;101035.63;10284318;28;20246;-75
2021/04/17 20:07:11;;;;;;;10.88;6.50;;;;;;;9.29;46.12;101040.03;10282273;28;20243;-74
2021/04/17 20:12:14;;;;;;;10.00;6.30;;;;;;;9.21;46.30;101032.47;10281683;28;20232;-74
2021/04/17 20:17:17;;;;;;;11.38;6.22;;;;;;;9.21;46.54;101040.50;10272486;28;20243;-73
2021/04/17 20:22:19;;;;;;;13.45;7.38;;;;;;;9.22;46.38;101038.72;10274209;28;20238;-74
2021/04/17 20:27:23;;;;;;;10.90;7.03;;;;;;;9.17;46.51;101046.19;10287839;28;20246;-74
2021/04/17 20:32:26;;;;;;;11.73;6.40;;;;;;;9.14;46.41;101043.72;10225235;28;20248;-75
2021/04/17 20:37:28;;;;;;;12.45;7.47;;;;;;;9.15;46.51;101048.09;10242307;28;20248;-74
2021/04/17 20:42:31;;;;;;;12.07;7.10;;;;;;;9.14;46.81;101043.72;10277662;28;20258;-74
2021/04/17 20:47:33;;;;;;;12.55;7.43;;;;;;;8.91;47.91;101042.50;10291597;28;20312;-74
2021/04/17 20:52:35;;;;;;;12.63;7.28;;;;;;;8.85;48.50;101043.75;10288790;28;20234;-72
2021/04/17 20:57:48;;;;;;;11.95;7.55;;;;;;;8.86;48.93;101047.28;10295951;28;20620;-74
2021/04/17 21:02:50;;;;;;;11.95;7.30;;;;;;;8.94;49.15;101048.53;10285571;28;20227;-75
2021/04/17 21:07:53;;;;;;;13.35;7.72;;;;;;;8.99;49.11;101049.06;10285599;28;20235;-75
2021/04/17 21:12:56;;;;;;;12.93;8.27;;;;;;;8.99;49.47;101048.22;10280613;28;20246;-75
2021/04/17 21:17:58;;;;;;;17.17;8.20;;;;;;;8.96;50.14;101043.06;10291653;28;22062;-73
2021/04/17 21:23:01;;;;;;;13.27;8.10;;;;;;;8.94;50.47;101031.56;10260973;28;20262;-74
2021/04/17 21:28:06;;;;;;;14.88;7.65;;;;;;;8.79;51.27;101041.47;10290021;28;20637;-78
2021/04/17 21:33:08;;;;;;;12.70;8.30;;;;;;;8.69;51.71;101037.63;10280288;28;20743;-74
2021/04/17 21:38:11;;;;;;;11.88;7.30;;;;;;;8.62;52.33;101053.22;10290341;28;20267;-73
2021/04/17 21:43:15;;;;;;;12.45;7.53;;;;;;;8.65;52.69;101046.81;10270159;28;20232;-75
2021/04/17 21:48:17;;;;;;;9.70;7.25;;;;;;;8.67;52.64;101058.31;10275390;28;20236;-74
2021/04/17 21:53:20;;;;;;;11.55;7.65;;;;;;;8.66;52.96;101057.44;10269852;28;20240;-75
2021/04/17 21:58:23;;;;;;;12.93;7.63;;;;;;;8.70;53.04;101052.75;10262781;28;20312;-74
2021/04/17 22:03:27;;;;;;;12.93;7.60;;;;;;;8.76;53.13;101055.03;10265556;28;20232;-73
2021/04/17 22:08:29;;;;;;;14.32;8.07;;;;;;;8.79;53.24;101052.16;10264717;28;21412;-73
2021/04/17 22:13:32;;;;;;;13.68;7.97;;;;;;;8.67;53.38;101052.97;10268667;28;20252;-73
2021/04/17 22:18:34;;;;;;;15.82;9.95;;;;;;;8.58;53.94;101047.22;10305948;28;20239;-73
2021/04/17 22:23:36;;;;;;;17.05;8.60;;;;;;;8.50;54.00;101040.59;10306954;28;20241;-73
2021/04/17 22:28:40;;;;;;;12.52;7.85;;;;;;;8.38;54.55;101039.50;10272393;28;21538;-74
2021/04/17 22:33:42;;;;;;;13.65;7.88;;;;;;;8.22;55.06;101039.56;10274658;28;20740;-73
2021/04/17 22:38:45;;;;;;;13.10;8.07;;;;;;;8.10;55.64;101033.16;10272500;28;20235;-73
2021/04/17 22:43:47;;;;;;;12.30;7.97;;;;;;;8.07;56.06;101033.34;10270973;28;20705;-73
2021/04/17 22:48:49;;;;;;;12.95;7.47;;;;;;;8.06;56.15;101028.94;10273625;28;20258;-74
2021/04/17 22:53:51;;;;;;;13.48;7.35;;;;;;;8.08;56.34;101027.03;10271755;28;20236;-74
2021/04/17 22:58:54;;;;;;;12.45;7.88;;;;;;;8.10;56.48;101025.13;10273802;28;20242;-73
2021/04/17 23:03:56;;;;;;;11.05;7.15;;;;;;;7.99;56.65;101016.03;10270760;28;20223;-73
2021/04/17 23:08:59;;;;;;;16.95;8.10;;;;;;;7.81;57.02;101015.31;10280669;28;20798;-73
2021/04/17 23:14:02;;;;;;;13.35;8.10;;;;;;;7.69;57.46;101020.44;10278424;28;21395;-74
2021/04/17 23:19:04;;;;;;;12.63;7.30;;;;;;;7.60;57.78;101012.97;10309926;28;20785;-74
2021/04/17 23:24:06;;;;;;;15.15;8.02;;;;;;;7.52;57.95;101017.03;10309710;28;20235;-74